sensor_id;sensor_type;location;lat;lon;timestamp;P1;durP1;ratioP1;P2;durP2;ratioP2
24650;SDS011;12783;48.824;8.662;2023-06-01T00:02:24;6.38;;;1.90;;
24650;SDS011;12783;48.824;8.662;2023-06-01T00:04:52;4.40;;;1.67;;
24650;SDS011;12783;48.824;8.662;2023-06-01T00:07:19;3.88;;;1.80;;
24650;SDS011;12783;48.824;8.662;2023-06-01T00:09:47;4.22;;;1.90;;
24650;SDS011;12783;48.824;8.662;2023-06-01T00:12:14;5.57;;;1.98;;
24650;SDS011;12783;48.824;8.662;2023-06-01T00:14:41;6.70;;;1.95;;
24650;SDS011;12783;48.824;8.662;2023-06-01T00:17:08;3.22;;;1.90;;
24650;SDS011;12783;48.824;8.662;2023-06-01T00:19:35;4.43;;;2.10;;
24650;SDS011;12783;48.824;8.662;2023-06-01T00:22:04;3.65;;;1.67;;
24650;SDS011;12783;48.824;8.662;2023-06-01T00:24:33;3.33;;;1.90;;
24650;SDS011;12783;48.824;8.662;2023-06-01T00:27:00;3.75;;;2.05;;
24650;SDS011;12783;48.824;8.662;2023-06-01T00:29:28;4.35;;;2.05;;
24650;SDS011;12783;48.824;8.662;2023-06-01T00:31:56;6.10;;;2.30;;
24650;SDS011;12783;48.824;8.662;2023-06-01T00:34:23;3.85;;;2.08;;
24650;SDS011;12783;48.824;8.662;2023-06-01T00:36:50;4.32;;;1.90;;
24650;SDS011;12783;48.824;8.662;2023-06-01T00:39:17;7.70;;;2.53;;
24650;SDS011;12783;48.824;8.662;2023-06-01T00:41:45;4.50;;;2.20;;
24650;SDS011;12783;48.824;8.662;2023-06-01T00:44:11;5.40;;;2.08;;
24650;SDS011;12783;48.824;8.662;2023-06-01T00:46:38;3.40;;;1.80;;
24650;SDS011;12783;48.824;8.662;2023-06-01T00:49:06;7.50;;;1.88;;
24650;SDS011;12783;48.824;8.662;2023-06-01T00:51:33;3.78;;;2.10;;
24650;SDS011;12783;48.824;8.662;2023-06-01T00:54:02;8.85;;;2.22;;
24650;SDS011;12783;48.824;8.662;2023-06-01T00:56:29;12.02;;;2.35;;
24650;SDS011;12783;48.824;8.662;2023-06-01T00:58:58;3.70;;;1.73;;
24650;SDS011;12783;48.824;8.662;2023-06-01T01:01:26;6.32;;;2.20;;
24650;SDS011;12783;48.824;8.662;2023-06-01T01:03:53;3.20;;;1.75;;
24650;SDS011;12783;48.824;8.662;2023-06-01T01:12:14;3.75;;;2.13;;
24650;SDS011;12783;48.824;8.662;2023-06-01T01:15:01;8.45;;;1.90;;
24650;SDS011;12783;48.824;8.662;2023-06-01T01:17:57;6.80;;;1.80;;
24650;SDS011;12783;48.824;8.662;2023-06-01T01:20:33;4.72;;;1.90;;
24650;SDS011;12783;48.824;8.662;2023-06-01T01:29:20;4.45;;;1.85;;
24650;SDS011;12783;48.824;8.662;2023-06-01T01:31:50;3.63;;;1.90;;
24650;SDS011;12783;48.824;8.662;2023-06-01T01:34:17;9.45;;;2.10;;
24650;SDS011;12783;48.824;8.662;2023-06-01T01:36:46;3.10;;;1.75;;
24650;SDS011;12783;48.824;8.662;2023-06-01T01:39:13;3.55;;;1.55;;
24650;SDS011;12783;48.824;8.662;2023-06-01T01:41:40;3.90;;;1.83;;
24650;SDS011;12783;48.824;8.662;2023-06-01T01:44:07;4.30;;;2.33;;
24650;SDS011;12783;48.824;8.662;2023-06-01T01:49:20;4.68;;;1.73;;
24650;SDS011;12783;48.824;8.662;2023-06-01T01:55:05;3.00;;;1.80;;
24650;SDS011;12783;48.824;8.662;2023-06-01T01:57:37;3.65;;;1.77;;
24650;SDS011;12783;48.824;8.662;2023-06-01T02:00:06;5.43;;;2.20;;
24650;SDS011;12783;48.824;8.662;2023-06-01T02:02:34;6.63;;;1.70;;
24650;SDS011;12783;48.824;8.662;2023-06-01T02:05:01;5.15;;;1.98;;
24650;SDS011;12783;48.824;8.662;2023-06-01T02:07:29;5.35;;;2.15;;
24650;SDS011;12783;48.824;8.662;2023-06-01T02:09:56;4.38;;;1.92;;
24650;SDS011;12783;48.824;8.662;2023-06-01T02:12:23;6.40;;;1.83;;
24650;SDS011;12783;48.824;8.662;2023-06-01T02:14:51;3.17;;;2.10;;
24650;SDS011;12783;48.824;8.662;2023-06-01T02:17:18;5.18;;;2.17;;
24650;SDS011;12783;48.824;8.662;2023-06-01T02:19:48;4.28;;;2.28;;
24650;SDS011;12783;48.824;8.662;2023-06-01T02:22:15;3.80;;;1.90;;
24650;SDS011;12783;48.824;8.662;2023-06-01T02:24:42;4.13;;;1.85;;
24650;SDS011;12783;48.824;8.662;2023-06-01T02:27:09;3.47;;;2.08;;
24650;SDS011;12783;48.824;8.662;2023-06-01T02:29:36;5.43;;;2.30;;
24650;SDS011;12783;48.824;8.662;2023-06-01T02:32:02;3.95;;;1.98;;
24650;SDS011;12783;48.824;8.662;2023-06-01T02:34:30;5.13;;;2.40;;
24650;SDS011;12783;48.824;8.662;2023-06-01T02:36:57;6.07;;;2.30;;
24650;SDS011;12783;48.824;8.662;2023-06-01T02:39:25;3.08;;;2.10;;
24650;SDS011;12783;48.824;8.662;2023-06-01T02:41:51;4.45;;;2.17;;
24650;SDS011;12783;48.824;8.662;2023-06-01T02:44:18;3.03;;;1.95;;
24650;SDS011;12783;48.824;8.662;2023-06-01T02:46:45;5.05;;;2.35;;
24650;SDS011;12783;48.824;8.662;2023-06-01T02:49:12;6.93;;;2.10;;
24650;SDS011;12783;48.824;8.662;2023-06-01T02:51:39;3.33;;;1.98;;
24650;SDS011;12783;48.824;8.662;2023-06-01T02:54:06;3.28;;;2.17;;
24650;SDS011;12783;48.824;8.662;2023-06-01T02:56:33;4.10;;;1.85;;
24650;SDS011;12783;48.824;8.662;2023-06-01T02:59:00;3.53;;;2.20;;
24650;SDS011;12783;48.824;8.662;2023-06-01T03:01:27;6.60;;;1.98;;
24650;SDS011;12783;48.824;8.662;2023-06-01T03:03:54;3.78;;;2.30;;
24650;SDS011;12783;48.824;8.662;2023-06-01T03:06:21;3.67;;;2.03;;
24650;SDS011;12783;48.824;8.662;2023-06-01T03:08:48;6.85;;;2.30;;
24650;SDS011;12783;48.824;8.662;2023-06-01T03:11:15;10.43;;;2.47;;
24650;SDS011;12783;48.824;8.662;2023-06-01T03:13:42;5.85;;;2.15;;
24650;SDS011;12783;48.824;8.662;2023-06-01T03:16:08;4.53;;;2.13;;
24650;SDS011;12783;48.824;8.662;2023-06-01T03:18:36;3.78;;;2.10;;
24650;SDS011;12783;48.824;8.662;2023-06-01T03:21:04;4.75;;;2.33;;
24650;SDS011;12783;48.824;8.662;2023-06-01T03:23:31;5.43;;;2.13;;
24650;SDS011;12783;48.824;8.662;2023-06-01T03:25:58;4.82;;;2.15;;
24650;SDS011;12783;48.824;8.662;2023-06-01T03:28:25;6.10;;;2.75;;
24650;SDS011;12783;48.824;8.662;2023-06-01T03:30:52;5.45;;;2.00;;
24650;SDS011;12783;48.824;8.662;2023-06-01T03:33:19;4.38;;;2.10;;
24650;SDS011;12783;48.824;8.662;2023-06-01T03:35:47;6.93;;;2.17;;
24650;SDS011;12783;48.824;8.662;2023-06-01T03:38:15;3.42;;;2.17;;
24650;SDS011;12783;48.824;8.662;2023-06-01T03:40:43;5.03;;;2.08;;
24650;SDS011;12783;48.824;8.662;2023-06-01T03:43:10;5.97;;;2.40;;
24650;SDS011;12783;48.824;8.662;2023-06-01T03:45:37;5.88;;;2.28;;
24650;SDS011;12783;48.824;8.662;2023-06-01T03:48:04;4.43;;;2.33;;
24650;SDS011;12783;48.824;8.662;2023-06-01T03:50:31;5.28;;;2.10;;
24650;SDS011;12783;48.824;8.662;2023-06-01T03:52:58;8.63;;;2.33;;
24650;SDS011;12783;48.824;8.662;2023-06-01T03:55:25;6.97;;;2.20;;
24650;SDS011;12783;48.824;8.662;2023-06-01T03:57:53;8.80;;;2.35;;
24650;SDS011;12783;48.824;8.662;2023-06-01T04:00:20;4.60;;;2.13;;
24650;SDS011;12783;48.824;8.662;2023-06-01T04:02:57;3.42;;;2.10;;
24650;SDS011;12783;48.824;8.662;2023-06-01T04:05:25;4.40;;;2.40;;
24650;SDS011;12783;48.824;8.662;2023-06-01T04:07:53;4.07;;;2.10;;
24650;SDS011;12783;48.824;8.662;2023-06-01T04:10:21;4.35;;;2.30;;
24650;SDS011;12783;48.824;8.662;2023-06-01T04:12:49;4.50;;;2.00;;
24650;SDS011;12783;48.824;8.662;2023-06-01T04:15:17;3.72;;;2.10;;
24650;SDS011;12783;48.824;8.662;2023-06-01T04:17:46;5.00;;;2.40;;
24650;SDS011;12783;48.824;8.662;2023-06-01T04:20:14;3.95;;;1.95;;
24650;SDS011;12783;48.824;8.662;2023-06-01T04:22:42;5.32;;;2.05;;
24650;SDS011;12783;48.824;8.662;2023-06-01T04:25:12;7.25;;;2.55;;
24650;SDS011;12783;48.824;8.662;2023-06-01T04:27:45;2.58;;;1.90;;
24650;SDS011;12783;48.824;8.662;2023-06-01T04:30:14;3.00;;;1.90;;
24650;SDS011;12783;48.824;8.662;2023-06-01T04:32:43;5.88;;;2.17;;
24650;SDS011;12783;48.824;8.662;2023-06-01T04:35:12;5.63;;;2.42;;
24650;SDS011;12783;48.824;8.662;2023-06-01T04:37:41;3.47;;;2.08;;
24650;SDS011;12783;48.824;8.662;2023-06-01T04:40:09;5.75;;;2.60;;
24650;SDS011;12783;48.824;8.662;2023-06-01T04:42:42;5.65;;;2.08;;
24650;SDS011;12783;48.824;8.662;2023-06-01T04:45:23;4.25;;;2.05;;
24650;SDS011;12783;48.824;8.662;2023-06-01T04:47:51;6.63;;;3.08;;
24650;SDS011;12783;48.824;8.662;2023-06-01T04:50:18;5.60;;;3.00;;
24650;SDS011;12783;48.824;8.662;2023-06-01T04:52:46;4.57;;;2.20;;
24650;SDS011;12783;48.824;8.662;2023-06-01T04:55:14;4.10;;;2.45;;
24650;SDS011;12783;48.824;8.662;2023-06-01T04:57:43;4.18;;;2.13;;
24650;SDS011;12783;48.824;8.662;2023-06-01T05:00:10;3.70;;;2.35;;
24650;SDS011;12783;48.824;8.662;2023-06-01T05:02:40;4.43;;;2.08;;
24650;SDS011;12783;48.824;8.662;2023-06-01T05:05:12;5.57;;;2.03;;
24650;SDS011;12783;48.824;8.662;2023-06-01T05:07:41;10.27;;;2.40;;
24650;SDS011;12783;48.824;8.662;2023-06-01T05:10:09;4.60;;;2.25;;
24650;SDS011;12783;48.824;8.662;2023-06-01T05:12:38;7.90;;;2.40;;
24650;SDS011;12783;48.824;8.662;2023-06-01T05:15:05;7.65;;;2.15;;
24650;SDS011;12783;48.824;8.662;2023-06-01T05:17:37;5.22;;;2.08;;
24650;SDS011;12783;48.824;8.662;2023-06-01T05:20:05;4.78;;;2.17;;
24650;SDS011;12783;48.824;8.662;2023-06-01T05:22:35;4.65;;;2.33;;
24650;SDS011;12783;48.824;8.662;2023-06-01T05:25:03;4.40;;;2.28;;
24650;SDS011;12783;48.824;8.662;2023-06-01T05:27:32;5.38;;;2.08;;
24650;SDS011;12783;48.824;8.662;2023-06-01T05:29:59;6.28;;;2.28;;
24650;SDS011;12783;48.824;8.662;2023-06-01T05:32:26;7.75;;;2.80;;
24650;SDS011;12783;48.824;8.662;2023-06-01T05:34:53;5.93;;;2.78;;
24650;SDS011;12783;48.824;8.662;2023-06-01T05:37:20;7.35;;;2.42;;
24650;SDS011;12783;48.824;8.662;2023-06-01T05:39:47;4.65;;;2.40;;
24650;SDS011;12783;48.824;8.662;2023-06-01T05:42:14;9.63;;;2.78;;
24650;SDS011;12783;48.824;8.662;2023-06-01T05:44:41;6.30;;;2.40;;
24650;SDS011;12783;48.824;8.662;2023-06-01T05:47:08;10.25;;;2.90;;
24650;SDS011;12783;48.824;8.662;2023-06-01T05:49:35;3.35;;;2.13;;
24650;SDS011;12783;48.824;8.662;2023-06-01T05:52:03;7.65;;;2.67;;
24650;SDS011;12783;48.824;8.662;2023-06-01T05:54:32;5.85;;;2.20;;
24650;SDS011;12783;48.824;8.662;2023-06-01T05:56:59;5.25;;;2.38;;
24650;SDS011;12783;48.824;8.662;2023-06-01T05:59:26;4.25;;;2.42;;
24650;SDS011;12783;48.824;8.662;2023-06-01T06:01:54;8.77;;;2.80;;
24650;SDS011;12783;48.824;8.662;2023-06-01T06:04:21;6.57;;;2.88;;
24650;SDS011;12783;48.824;8.662;2023-06-01T06:06:48;5.65;;;2.63;;
24650;SDS011;12783;48.824;8.662;2023-06-01T06:09:15;5.47;;;2.42;;
24650;SDS011;12783;48.824;8.662;2023-06-01T06:11:42;5.97;;;2.58;;
24650;SDS011;12783;48.824;8.662;2023-06-01T06:14:10;3.47;;;2.30;;
24650;SDS011;12783;48.824;8.662;2023-06-01T06:16:37;8.00;;;2.70;;
24650;SDS011;12783;48.824;8.662;2023-06-01T06:19:06;7.50;;;2.78;;
24650;SDS011;12783;48.824;8.662;2023-06-01T06:21:33;5.85;;;2.72;;
24650;SDS011;12783;48.824;8.662;2023-06-01T06:24:01;5.75;;;2.75;;
24650;SDS011;12783;48.824;8.662;2023-06-01T06:26:28;7.18;;;2.60;;
24650;SDS011;12783;48.824;8.662;2023-06-01T06:28:56;8.73;;;2.47;;
24650;SDS011;12783;48.824;8.662;2023-06-01T06:31:22;4.93;;;2.65;;
24650;SDS011;12783;48.824;8.662;2023-06-01T06:33:50;10.20;;;2.70;;
24650;SDS011;12783;48.824;8.662;2023-06-01T06:36:17;7.55;;;2.80;;
24650;SDS011;12783;48.824;8.662;2023-06-01T06:38:45;5.72;;;2.67;;
24650;SDS011;12783;48.824;8.662;2023-06-01T06:41:12;4.30;;;2.60;;
24650;SDS011;12783;48.824;8.662;2023-06-01T06:43:39;5.40;;;2.60;;
24650;SDS011;12783;48.824;8.662;2023-06-01T06:46:06;8.43;;;2.72;;
24650;SDS011;12783;48.824;8.662;2023-06-01T06:48:33;4.53;;;2.80;;
24650;SDS011;12783;48.824;8.662;2023-06-01T06:51:01;4.50;;;2.50;;
24650;SDS011;12783;48.824;8.662;2023-06-01T06:53:29;5.13;;;2.45;;
24650;SDS011;12783;48.824;8.662;2023-06-01T06:55:56;7.35;;;2.58;;
24650;SDS011;12783;48.824;8.662;2023-06-01T06:58:23;4.32;;;2.30;;
24650;SDS011;12783;48.824;8.662;2023-06-01T07:00:51;3.70;;;2.00;;
24650;SDS011;12783;48.824;8.662;2023-06-01T07:03:18;6.80;;;2.83;;
24650;SDS011;12783;48.824;8.662;2023-06-01T07:05:45;11.90;;;2.90;;
24650;SDS011;12783;48.824;8.662;2023-06-01T07:08:12;5.35;;;2.10;;
24650;SDS011;12783;48.824;8.662;2023-06-01T07:10:40;5.75;;;2.72;;
24650;SDS011;12783;48.824;8.662;2023-06-01T07:13:07;7.68;;;2.85;;
24650;SDS011;12783;48.824;8.662;2023-06-01T07:15:33;6.28;;;2.75;;
24650;SDS011;12783;48.824;8.662;2023-06-01T07:18:00;9.25;;;2.90;;
24650;SDS011;12783;48.824;8.662;2023-06-01T07:20:27;6.95;;;2.97;;
24650;SDS011;12783;48.824;8.662;2023-06-01T07:22:54;5.38;;;2.70;;
24650;SDS011;12783;48.824;8.662;2023-06-01T07:25:21;7.80;;;2.80;;
24650;SDS011;12783;48.824;8.662;2023-06-01T07:27:48;4.30;;;2.30;;
24650;SDS011;12783;48.824;8.662;2023-06-01T07:30:17;8.50;;;2.72;;
24650;SDS011;12783;48.824;8.662;2023-06-01T07:32:44;4.32;;;2.45;;
24650;SDS011;12783;48.824;8.662;2023-06-01T07:35:11;11.45;;;2.80;;
24650;SDS011;12783;48.824;8.662;2023-06-01T07:37:39;6.05;;;2.45;;
24650;SDS011;12783;48.824;8.662;2023-06-01T07:40:07;8.10;;;3.88;;
24650;SDS011;12783;48.824;8.662;2023-06-01T07:42:34;9.57;;;3.08;;
24650;SDS011;12783;48.824;8.662;2023-06-01T07:45:01;6.97;;;2.95;;
24650;SDS011;12783;48.824;8.662;2023-06-01T07:47:28;5.22;;;2.60;;
24650;SDS011;12783;48.824;8.662;2023-06-01T07:49:56;8.70;;;3.13;;
24650;SDS011;12783;48.824;8.662;2023-06-01T07:52:23;10.88;;;2.97;;
24650;SDS011;12783;48.824;8.662;2023-06-01T07:54:51;8.57;;;2.90;;
24650;SDS011;12783;48.824;8.662;2023-06-01T07:57:18;7.25;;;2.80;;
24650;SDS011;12783;48.824;8.662;2023-06-01T07:59:45;12.60;;;3.20;;
24650;SDS011;12783;48.824;8.662;2023-06-01T08:02:12;10.02;;;3.22;;
24650;SDS011;12783;48.824;8.662;2023-06-01T08:04:39;5.97;;;3.03;;
24650;SDS011;12783;48.824;8.662;2023-06-01T08:07:07;13.80;;;3.60;;
24650;SDS011;12783;48.824;8.662;2023-06-01T08:09:35;9.50;;;2.90;;
24650;SDS011;12783;48.824;8.662;2023-06-01T08:12:04;7.32;;;2.90;;
24650;SDS011;12783;48.824;8.662;2023-06-01T08:14:33;7.38;;;3.38;;
24650;SDS011;12783;48.824;8.662;2023-06-01T08:17:01;6.07;;;3.25;;
24650;SDS011;12783;48.824;8.662;2023-06-01T08:19:28;10.10;;;3.35;;
24650;SDS011;12783;48.824;8.662;2023-06-01T08:21:56;5.80;;;2.95;;
24650;SDS011;12783;48.824;8.662;2023-06-01T08:24:23;4.75;;;2.95;;
24650;SDS011;12783;48.824;8.662;2023-06-01T08:26:54;7.78;;;3.10;;
24650;SDS011;12783;48.824;8.662;2023-06-01T08:29:22;6.30;;;3.13;;
24650;SDS011;12783;48.824;8.662;2023-06-01T08:32:07;6.28;;;3.08;;
24650;SDS011;12783;48.824;8.662;2023-06-01T08:34:35;7.15;;;3.50;;
24650;SDS011;12783;48.824;8.662;2023-06-01T08:37:02;7.18;;;3.22;;
24650;SDS011;12783;48.824;8.662;2023-06-01T08:39:30;5.85;;;3.42;;
24650;SDS011;12783;48.824;8.662;2023-06-01T08:42:00;7.00;;;3.47;;
24650;SDS011;12783;48.824;8.662;2023-06-01T08:44:32;8.52;;;3.00;;
24650;SDS011;12783;48.824;8.662;2023-06-01T08:47:05;6.68;;;3.30;;
24650;SDS011;12783;48.824;8.662;2023-06-01T08:49:35;5.97;;;3.10;;
24650;SDS011;12783;48.824;8.662;2023-06-01T08:52:13;7.60;;;3.30;;
24650;SDS011;12783;48.824;8.662;2023-06-01T08:54:45;7.10;;;3.83;;
24650;SDS011;12783;48.824;8.662;2023-06-01T08:57:12;10.55;;;3.28;;
24650;SDS011;12783;48.824;8.662;2023-06-01T08:59:40;7.95;;;3.25;;
24650;SDS011;12783;48.824;8.662;2023-06-01T09:02:07;10.98;;;3.47;;
24650;SDS011;12783;48.824;8.662;2023-06-01T09:04:35;11.27;;;3.22;;
24650;SDS011;12783;48.824;8.662;2023-06-01T09:07:08;13.02;;;3.63;;
24650;SDS011;12783;48.824;8.662;2023-06-01T09:09:35;10.15;;;3.63;;
24650;SDS011;12783;48.824;8.662;2023-06-01T09:17:36;5.50;;;2.65;;
24650;SDS011;12783;48.824;8.662;2023-06-01T09:20:04;6.05;;;3.00;;
24650;SDS011;12783;48.824;8.662;2023-06-01T09:22:42;7.47;;;3.17;;
24650;SDS011;12783;48.824;8.662;2023-06-01T09:25:12;8.07;;;3.35;;
24650;SDS011;12783;48.824;8.662;2023-06-01T09:27:45;6.93;;;3.45;;
24650;SDS011;12783;48.824;8.662;2023-06-01T09:30:13;9.07;;;3.28;;
24650;SDS011;12783;48.824;8.662;2023-06-01T09:32:42;8.68;;;3.60;;
24650;SDS011;12783;48.824;8.662;2023-06-01T09:35:11;6.00;;;3.28;;
24650;SDS011;12783;48.824;8.662;2023-06-01T09:37:38;8.60;;;3.50;;
24650;SDS011;12783;48.824;8.662;2023-06-01T09:40:19;6.50;;;3.17;;
24650;SDS011;12783;48.824;8.662;2023-06-01T09:42:47;9.95;;;3.60;;
24650;SDS011;12783;48.824;8.662;2023-06-01T09:45:20;11.63;;;4.18;;
24650;SDS011;12783;48.824;8.662;2023-06-01T09:47:53;8.50;;;4.03;;
24650;SDS011;12783;48.824;8.662;2023-06-01T09:50:42;6.55;;;3.67;;
24650;SDS011;12783;48.824;8.662;2023-06-01T09:53:10;12.32;;;3.83;;
24650;SDS011;12783;48.824;8.662;2023-06-01T09:55:40;7.57;;;3.67;;
24650;SDS011;12783;48.824;8.662;2023-06-01T09:58:27;8.35;;;3.78;;
24650;SDS011;12783;48.824;8.662;2023-06-01T10:00:54;8.55;;;3.90;;
24650;SDS011;12783;48.824;8.662;2023-06-01T10:03:26;7.70;;;3.95;;
24650;SDS011;12783;48.824;8.662;2023-06-01T10:05:54;7.07;;;3.60;;
24650;SDS011;12783;48.824;8.662;2023-06-01T10:08:23;9.05;;;4.15;;
24650;SDS011;12783;48.824;8.662;2023-06-01T10:10:51;8.90;;;4.20;;
24650;SDS011;12783;48.824;8.662;2023-06-01T10:13:18;14.38;;;3.92;;
24650;SDS011;12783;48.824;8.662;2023-06-01T10:15:48;12.38;;;4.25;;
24650;SDS011;12783;48.824;8.662;2023-06-01T10:18:19;11.32;;;4.38;;
24650;SDS011;12783;48.824;8.662;2023-06-01T10:20:47;9.82;;;4.30;;
24650;SDS011;12783;48.824;8.662;2023-06-01T10:23:14;6.35;;;3.88;;
24650;SDS011;12783;48.824;8.662;2023-06-01T10:25:56;10.85;;;4.13;;
24650;SDS011;12783;48.824;8.662;2023-06-01T10:28:27;7.75;;;3.90;;
24650;SDS011;12783;48.824;8.662;2023-06-01T10:33:58;7.15;;;3.78;;
24650;SDS011;12783;48.824;8.662;2023-06-01T10:36:45;8.70;;;4.07;;
24650;SDS011;12783;48.824;8.662;2023-06-01T10:39:30;7.10;;;3.88;;
24650;SDS011;12783;48.824;8.662;2023-06-01T10:52:23;8.82;;;3.95;;
24650;SDS011;12783;48.824;8.662;2023-06-01T10:55:41;10.57;;;4.07;;
24650;SDS011;12783;48.824;8.662;2023-06-01T10:57:42;12.63;;;4.30;;
24650;SDS011;12783;48.824;8.662;2023-06-01T11:02:56;6.45;;;3.72;;
24650;SDS011;12783;48.824;8.662;2023-06-01T11:13:30;7.90;;;3.78;;
24650;SDS011;12783;48.824;8.662;2023-06-01T11:18:45;10.05;;;4.00;;
24650;SDS011;12783;48.824;8.662;2023-06-01T11:21:27;9.55;;;4.22;;
24650;SDS011;12783;48.824;8.662;2023-06-01T11:24:07;7.00;;;3.97;;
24650;SDS011;12783;48.824;8.662;2023-06-01T11:29:19;5.90;;;3.63;;
24650;SDS011;12783;48.824;8.662;2023-06-01T11:31:51;8.85;;;3.90;;
24650;SDS011;12783;48.824;8.662;2023-06-01T11:34:46;5.97;;;3.10;;
24650;SDS011;12783;48.824;8.662;2023-06-01T11:37:15;8.93;;;3.70;;
24650;SDS011;12783;48.824;8.662;2023-06-01T11:39:44;8.27;;;3.13;;
24650;SDS011;12783;48.824;8.662;2023-06-01T11:42:13;7.60;;;3.83;;
24650;SDS011;12783;48.824;8.662;2023-06-01T11:44:43;8.88;;;3.38;;
24650;SDS011;12783;48.824;8.662;2023-06-01T11:47:13;7.05;;;3.00;;
24650;SDS011;12783;48.824;8.662;2023-06-01T11:49:47;8.68;;;4.00;;
24650;SDS011;12783;48.824;8.662;2023-06-01T11:52:18;10.07;;;3.97;;
24650;SDS011;12783;48.824;8.662;2023-06-01T11:54:46;7.90;;;3.65;;
24650;SDS011;12783;48.824;8.662;2023-06-01T11:57:14;4.88;;;3.05;;
24650;SDS011;12783;48.824;8.662;2023-06-01T11:59:48;6.72;;;3.55;;
24650;SDS011;12783;48.824;8.662;2023-06-01T12:02:26;10.40;;;3.17;;
24650;SDS011;12783;48.824;8.662;2023-06-01T12:04:57;5.45;;;3.38;;
24650;SDS011;12783;48.824;8.662;2023-06-01T12:07:28;7.95;;;4.00;;
24650;SDS011;12783;48.824;8.662;2023-06-01T12:09:55;11.15;;;4.47;;
24650;SDS011;12783;48.824;8.662;2023-06-01T12:12:24;11.20;;;3.75;;
24650;SDS011;12783;48.824;8.662;2023-06-01T12:14:51;6.53;;;2.90;;
24650;SDS011;12783;48.824;8.662;2023-06-01T12:17:19;9.68;;;3.97;;
24650;SDS011;12783;48.824;8.662;2023-06-01T12:19:50;6.05;;;3.63;;
24650;SDS011;12783;48.824;8.662;2023-06-01T12:22:17;11.82;;;4.13;;
24650;SDS011;12783;48.824;8.662;2023-06-01T12:24:44;6.05;;;3.15;;
24650;SDS011;12783;48.824;8.662;2023-06-01T12:27:12;5.72;;;3.63;;
24650;SDS011;12783;48.824;8.662;2023-06-01T12:29:48;7.50;;;3.50;;
24650;SDS011;12783;48.824;8.662;2023-06-01T12:32:18;6.93;;;4.03;;
24650;SDS011;12783;48.824;8.662;2023-06-01T12:35:02;6.72;;;3.47;;
24650;SDS011;12783;48.824;8.662;2023-06-01T12:37:32;5.60;;;3.63;;
24650;SDS011;12783;48.824;8.662;2023-06-01T12:39:58;11.85;;;3.88;;
24650;SDS011;12783;48.824;8.662;2023-06-01T12:42:34;9.02;;;3.78;;
24650;SDS011;12783;48.824;8.662;2023-06-01T12:45:03;4.93;;;3.20;;
24650;SDS011;12783;48.824;8.662;2023-06-01T12:47:35;6.25;;;3.25;;
24650;SDS011;12783;48.824;8.662;2023-06-01T12:50:07;5.40;;;2.97;;
24650;SDS011;12783;48.824;8.662;2023-06-01T12:52:37;7.65;;;3.47;;
24650;SDS011;12783;48.824;8.662;2023-06-01T12:55:05;10.95;;;3.83;;
24650;SDS011;12783;48.824;8.662;2023-06-01T12:57:37;8.07;;;3.85;;
24650;SDS011;12783;48.824;8.662;2023-06-01T13:00:05;5.95;;;3.72;;
24650;SDS011;12783;48.824;8.662;2023-06-01T13:02:33;7.65;;;3.33;;
24650;SDS011;12783;48.824;8.662;2023-06-01T13:05:01;8.63;;;3.70;;
24650;SDS011;12783;48.824;8.662;2023-06-01T13:07:31;8.75;;;3.70;;
24650;SDS011;12783;48.824;8.662;2023-06-01T13:09:58;11.50;;;3.88;;
24650;SDS011;12783;48.824;8.662;2023-06-01T13:12:25;8.13;;;3.60;;
24650;SDS011;12783;48.824;8.662;2023-06-01T13:14:54;7.78;;;3.10;;
24650;SDS011;12783;48.824;8.662;2023-06-01T13:17:23;6.22;;;3.45;;
24650;SDS011;12783;48.824;8.662;2023-06-01T13:19:50;5.93;;;3.40;;
24650;SDS011;12783;48.824;8.662;2023-06-01T13:22:17;8.77;;;3.28;;
24650;SDS011;12783;48.824;8.662;2023-06-01T13:24:44;6.22;;;3.08;;
24650;SDS011;12783;48.824;8.662;2023-06-01T13:27:29;8.65;;;3.63;;
24650;SDS011;12783;48.824;8.662;2023-06-01T13:29:57;4.53;;;3.00;;
24650;SDS011;12783;48.824;8.662;2023-06-01T13:32:24;6.70;;;2.90;;
24650;SDS011;12783;48.824;8.662;2023-06-01T13:34:52;7.30;;;3.15;;
24650;SDS011;12783;48.824;8.662;2023-06-01T13:37:19;10.88;;;3.30;;
24650;SDS011;12783;48.824;8.662;2023-06-01T13:39:48;7.00;;;3.15;;
24650;SDS011;12783;48.824;8.662;2023-06-01T13:42:18;4.82;;;3.05;;
24650;SDS011;12783;48.824;8.662;2023-06-01T13:44:46;7.22;;;2.85;;
24650;SDS011;12783;48.824;8.662;2023-06-01T13:47:14;6.60;;;2.90;;
24650;SDS011;12783;48.824;8.662;2023-06-01T13:49:42;6.65;;;2.80;;
24650;SDS011;12783;48.824;8.662;2023-06-01T13:52:09;8.93;;;3.05;;
24650;SDS011;12783;48.824;8.662;2023-06-01T13:54:37;5.03;;;2.80;;
24650;SDS011;12783;48.824;8.662;2023-06-01T13:57:04;8.43;;;2.92;;
24650;SDS011;12783;48.824;8.662;2023-06-01T13:59:35;6.55;;;2.47;;
24650;SDS011;12783;48.824;8.662;2023-06-01T14:02:03;6.70;;;2.83;;
24650;SDS011;12783;48.824;8.662;2023-06-01T14:04:31;4.95;;;2.50;;
24650;SDS011;12783;48.824;8.662;2023-06-01T14:06:58;7.20;;;2.72;;
24650;SDS011;12783;48.824;8.662;2023-06-01T14:09:25;7.80;;;2.72;;
24650;SDS011;12783;48.824;8.662;2023-06-01T14:11:52;4.45;;;2.67;;
24650;SDS011;12783;48.824;8.662;2023-06-01T14:14:19;5.97;;;2.80;;
24650;SDS011;12783;48.824;8.662;2023-06-01T14:16:46;6.78;;;2.78;;
24650;SDS011;12783;48.824;8.662;2023-06-01T14:19:13;3.67;;;2.45;;
24650;SDS011;12783;48.824;8.662;2023-06-01T14:21:40;6.50;;;2.90;;
24650;SDS011;12783;48.824;8.662;2023-06-01T14:24:07;5.90;;;2.97;;
24650;SDS011;12783;48.824;8.662;2023-06-01T14:26:34;5.55;;;2.65;;
24650;SDS011;12783;48.824;8.662;2023-06-01T14:29:01;7.40;;;2.33;;
24650;SDS011;12783;48.824;8.662;2023-06-01T14:31:28;4.20;;;2.20;;
24650;SDS011;12783;48.824;8.662;2023-06-01T14:33:55;4.85;;;2.17;;
24650;SDS011;12783;48.824;8.662;2023-06-01T14:36:22;8.65;;;2.40;;
24650;SDS011;12783;48.824;8.662;2023-06-01T14:39:07;7.63;;;2.90;;
24650;SDS011;12783;48.824;8.662;2023-06-01T14:41:34;3.33;;;2.20;;
24650;SDS011;12783;48.824;8.662;2023-06-01T14:44:01;6.85;;;2.80;;
24650;SDS011;12783;48.824;8.662;2023-06-01T14:46:28;5.38;;;2.80;;
24650;SDS011;12783;48.824;8.662;2023-06-01T14:48:55;6.07;;;2.45;;
24650;SDS011;12783;48.824;8.662;2023-06-01T14:51:24;4.53;;;2.67;;
24650;SDS011;12783;48.824;8.662;2023-06-01T14:53:51;4.90;;;2.13;;
24650;SDS011;12783;48.824;8.662;2023-06-01T14:56:18;4.57;;;2.40;;
24650;SDS011;12783;48.824;8.662;2023-06-01T14:58:47;4.28;;;2.20;;
24650;SDS011;12783;48.824;8.662;2023-06-01T15:01:14;6.50;;;2.42;;
24650;SDS011;12783;48.824;8.662;2023-06-01T15:03:41;4.13;;;2.22;;
24650;SDS011;12783;48.824;8.662;2023-06-01T15:06:08;6.53;;;2.47;;
24650;SDS011;12783;48.824;8.662;2023-06-01T15:08:35;5.88;;;2.10;;
24650;SDS011;12783;48.824;8.662;2023-06-01T15:11:02;4.45;;;2.17;;
24650;SDS011;12783;48.824;8.662;2023-06-01T15:13:30;3.55;;;2.10;;
24650;SDS011;12783;48.824;8.662;2023-06-01T15:15:57;5.63;;;2.20;;
24650;SDS011;12783;48.824;8.662;2023-06-01T15:18:24;6.47;;;2.10;;
24650;SDS011;12783;48.824;8.662;2023-06-01T15:20:51;6.78;;;2.10;;
24650;SDS011;12783;48.824;8.662;2023-06-01T15:23:18;6.78;;;2.20;;
24650;SDS011;12783;48.824;8.662;2023-06-01T15:25:45;6.07;;;2.03;;
24650;SDS011;12783;48.824;8.662;2023-06-01T15:28:12;2.83;;;2.17;;
24650;SDS011;12783;48.824;8.662;2023-06-01T15:30:39;6.13;;;1.90;;
24650;SDS011;12783;48.824;8.662;2023-06-01T15:33:06;7.47;;;2.17;;
24650;SDS011;12783;48.824;8.662;2023-06-01T15:35:34;4.72;;;1.80;;
24650;SDS011;12783;48.824;8.662;2023-06-01T15:38:01;5.25;;;2.00;;
24650;SDS011;12783;48.824;8.662;2023-06-01T15:40:28;10.48;;;2.10;;
24650;SDS011;12783;48.824;8.662;2023-06-01T15:42:56;4.28;;;2.10;;
24650;SDS011;12783;48.824;8.662;2023-06-01T15:45:22;8.63;;;1.85;;
24650;SDS011;12783;48.824;8.662;2023-06-01T15:47:50;14.95;;;2.17;;
24650;SDS011;12783;48.824;8.662;2023-06-01T15:50:17;6.40;;;1.95;;